sensor_id;sensor_type;location;lat;lon;timestamp;P1;durP1;ratioP1;P2;durP2;ratioP2
67715;SDS011;54508;43.238;25.306;2023-09-18T00:00:20;3.33;;;2.00;;
67715;SDS011;54508;43.238;25.306;2023-09-18T00:02:55;2.53;;;1.80;;
67715;SDS011;54508;43.238;25.306;2023-09-18T00:05:21;2.00;;;1.73;;
67715;SDS011;54508;43.238;25.306;2023-09-18T00:07:46;4.17;;;1.90;;
67715;SDS011;54508;43.238;25.306;2023-09-18T00:10:12;2.58;;;1.90;;
67715;SDS011;54508;43.238;25.306;2023-09-18T00:12:38;2.00;;;1.80;;
67715;SDS011;54508;43.238;25.306;2023-09-18T00:15:05;4.60;;;2.05;;
67715;SDS011;54508;43.238;25.306;2023-09-18T00:17:33;2.47;;;1.90;;
67715;SDS011;54508;43.238;25.306;2023-09-18T00:19:59;2.63;;;2.00;;
67715;SDS011;54508;43.238;25.306;2023-09-18T00:22:25;3.23;;;1.90;;
67715;SDS011;54508;43.238;25.306;2023-09-18T00:24:51;3.10;;;2.00;;
67715;SDS011;54508;43.238;25.306;2023-09-18T00:27:16;2.10;;;1.80;;
67715;SDS011;54508;43.238;25.306;2023-09-18T00:29:42;1.93;;;1.73;;
67715;SDS011;54508;43.238;25.306;2023-09-18T00:32:08;2.22;;;1.90;;
67715;SDS011;54508;43.238;25.306;2023-09-18T00:34:33;2.13;;;1.93;;
67715;SDS011;54508;43.238;25.306;2023-09-18T00:36:58;2.63;;;2.00;;
67715;SDS011;54508;43.238;25.306;2023-09-18T00:39:24;2.67;;;1.75;;
67715;SDS011;54508;43.238;25.306;2023-09-18T00:41:50;1.85;;;1.55;;
67715;SDS011;54508;43.238;25.306;2023-09-18T00:44:19;2.10;;;1.90;;
67715;SDS011;54508;43.238;25.306;2023-09-18T00:46:45;2.08;;;1.88;;
67715;SDS011;54508;43.238;25.306;2023-09-18T00:49:11;2.27;;;1.67;;
67715;SDS011;54508;43.238;25.306;2023-09-18T00:51:37;2.72;;;1.67;;
67715;SDS011;54508;43.238;25.306;2023-09-18T00:54:02;2.33;;;1.92;;
67715;SDS011;54508;43.238;25.306;2023-09-18T00:56:28;2.20;;;1.73;;
67715;SDS011;54508;43.238;25.306;2023-09-18T00:58:54;2.50;;;2.00;;
67715;SDS011;54508;43.238;25.306;2023-09-18T01:01:19;2.88;;;1.90;;
67715;SDS011;54508;43.238;25.306;2023-09-18T01:03:50;2.78;;;2.50;;
67715;SDS011;54508;43.238;25.306;2023-09-18T01:06:18;2.00;;;1.83;;
67715;SDS011;54508;43.238;25.306;2023-09-18T01:08:45;2.03;;;1.83;;
67715;SDS011;54508;43.238;25.306;2023-09-18T01:16:41;1.95;;;1.75;;
67715;SDS011;54508;43.238;25.306;2023-09-18T01:19:14;1.88;;;1.73;;
67715;SDS011;54508;43.238;25.306;2023-09-18T01:21:40;2.80;;;1.80;;
67715;SDS011;54508;43.238;25.306;2023-09-18T01:24:05;2.30;;;2.10;;
67715;SDS011;54508;43.238;25.306;2023-09-18T01:26:31;1.87;;;1.57;;
67715;SDS011;54508;43.238;25.306;2023-09-18T01:28:56;2.10;;;1.52;;
67715;SDS011;54508;43.238;25.306;2023-09-18T01:31:22;2.57;;;2.00;;
67715;SDS011;54508;43.238;25.306;2023-09-18T01:33:47;1.70;;;1.53;;
67715;SDS011;54508;43.238;25.306;2023-09-18T01:36:14;2.35;;;1.77;;
67715;SDS011;54508;43.238;25.306;2023-09-18T01:38:42;2.25;;;1.67;;
67715;SDS011;54508;43.238;25.306;2023-09-18T01:41:08;1.73;;;1.60;;
67715;SDS011;54508;43.238;25.306;2023-09-18T01:43:34;2.35;;;1.80;;
67715;SDS011;54508;43.238;25.306;2023-09-18T01:46:00;2.25;;;1.52;;
67715;SDS011;54508;43.238;25.306;2023-09-18T01:48:26;2.90;;;2.07;;
67715;SDS011;54508;43.238;25.306;2023-09-18T01:50:51;2.30;;;2.00;;
67715;SDS011;54508;43.238;25.306;2023-09-18T01:53:17;2.05;;;1.83;;
67715;SDS011;54508;43.238;25.306;2023-09-18T01:55:42;2.10;;;1.80;;
67715;SDS011;54508;43.238;25.306;2023-09-18T01:58:09;3.15;;;2.10;;
67715;SDS011;54508;43.238;25.306;2023-09-18T02:00:34;2.20;;;1.97;;
67715;SDS011;54508;43.238;25.306;2023-09-18T02:03:00;2.33;;;2.13;;
67715;SDS011;54508;43.238;25.306;2023-09-18T02:05:25;2.10;;;1.75;;
67715;SDS011;54508;43.238;25.306;2023-09-18T02:07:51;3.17;;;1.87;;
67715;SDS011;54508;43.238;25.306;2023-09-18T02:10:16;2.30;;;2.10;;
67715;SDS011;54508;43.238;25.306;2023-09-18T02:12:41;2.30;;;2.10;;
67715;SDS011;54508;43.238;25.306;2023-09-18T02:15:07;2.30;;;2.08;;
67715;SDS011;54508;43.238;25.306;2023-09-18T02:17:35;2.10;;;1.90;;
67715;SDS011;54508;43.238;25.306;2023-09-18T02:20:00;3.08;;;1.98;;
67715;SDS011;54508;43.238;25.306;2023-09-18T02:22:31;4.18;;;2.20;;
67715;SDS011;54508;43.238;25.306;2023-09-18T02:24:57;3.60;;;2.10;;
67715;SDS011;54508;43.238;25.306;2023-09-18T02:27:23;2.50;;;2.20;;
67715;SDS011;54508;43.238;25.306;2023-09-18T02:29:49;2.50;;;2.30;;
67715;SDS011;54508;43.238;25.306;2023-09-18T02:32:15;2.45;;;2.25;;
67715;SDS011;54508;43.238;25.306;2023-09-18T02:34:41;2.30;;;2.10;;
67715;SDS011;54508;43.238;25.306;2023-09-18T02:37:06;2.53;;;2.30;;
67715;SDS011;54508;43.238;25.306;2023-09-18T02:39:32;2.93;;;2.20;;
67715;SDS011;54508;43.238;25.306;2023-09-18T02:41:57;2.93;;;2.30;;
67715;SDS011;54508;43.238;25.306;2023-09-18T02:44:23;3.63;;;2.42;;
67715;SDS011;54508;43.238;25.306;2023-09-18T02:46:48;2.60;;;2.03;;
67715;SDS011;54508;43.238;25.306;2023-09-18T02:49:14;2.60;;;2.20;;
67715;SDS011;54508;43.238;25.306;2023-09-18T02:51:39;2.45;;;2.15;;
67715;SDS011;54508;43.238;25.306;2023-09-18T02:54:05;2.50;;;2.10;;
67715;SDS011;54508;43.238;25.306;2023-09-18T02:56:31;2.27;;;2.07;;
67715;SDS011;54508;43.238;25.306;2023-09-18T02:58:56;2.60;;;2.30;;
67715;SDS011;54508;43.238;25.306;2023-09-18T03:01:21;2.47;;;2.28;;
67715;SDS011;54508;43.238;25.306;2023-09-18T03:03:47;2.70;;;2.20;;
67715;SDS011;54508;43.238;25.306;2023-09-18T03:06:13;4.90;;;2.23;;
67715;SDS011;54508;43.238;25.306;2023-09-18T03:08:38;2.83;;;2.50;;
67715;SDS011;54508;43.238;25.306;2023-09-18T03:11:10;2.80;;;2.27;;
67715;SDS011;54508;43.238;25.306;2023-09-18T03:13:36;2.33;;;2.10;;
67715;SDS011;54508;43.238;25.306;2023-09-18T03:16:02;2.83;;;2.37;;
67715;SDS011;54508;43.238;25.306;2023-09-18T03:18:27;2.85;;;2.20;;
67715;SDS011;54508;43.238;25.306;2023-09-18T03:20:53;2.97;;;2.50;;
67715;SDS011;54508;43.238;25.306;2023-09-18T03:23:18;2.80;;;2.03;;
67715;SDS011;54508;43.238;25.306;2023-09-18T03:25:44;3.30;;;2.10;;
67715;SDS011;54508;43.238;25.306;2023-09-18T03:28:09;2.60;;;2.40;;
67715;SDS011;54508;43.238;25.306;2023-09-18T03:30:35;4.53;;;2.70;;
67715;SDS011;54508;43.238;25.306;2023-09-18T03:33:01;2.88;;;2.28;;
67715;SDS011;54508;43.238;25.306;2023-09-18T03:35:28;3.10;;;2.47;;
67715;SDS011;54508;43.238;25.306;2023-09-18T03:37:59;2.50;;;2.28;;
67715;SDS011;54508;43.238;25.306;2023-09-18T03:40:24;3.58;;;2.60;;
67715;SDS011;54508;43.238;25.306;2023-09-18T03:42:50;2.93;;;2.40;;
67715;SDS011;54508;43.238;25.306;2023-09-18T03:45:15;3.20;;;2.20;;
67715;SDS011;54508;43.238;25.306;2023-09-18T03:47:43;2.65;;;2.08;;
67715;SDS011;54508;43.238;25.306;2023-09-18T03:50:09;3.93;;;2.70;;
67715;SDS011;54508;43.238;25.306;2023-09-18T03:52:36;3.90;;;2.30;;
67715;SDS011;54508;43.238;25.306;2023-09-18T03:55:02;2.75;;;2.55;;
67715;SDS011;54508;43.238;25.306;2023-09-18T03:57:28;2.53;;;2.33;;
67715;SDS011;54508;43.238;25.306;2023-09-18T03:59:53;2.40;;;2.20;;
67715;SDS011;54508;43.238;25.306;2023-09-18T04:02:19;3.67;;;2.50;;
67715;SDS011;54508;43.238;25.306;2023-09-18T04:04:44;2.80;;;2.50;;
67715;SDS011;54508;43.238;25.306;2023-09-18T04:07:09;3.97;;;2.40;;
67715;SDS011;54508;43.238;25.306;2023-09-18T04:09:36;3.03;;;2.50;;
67715;SDS011;54508;43.238;25.306;2023-09-18T04:12:03;4.63;;;2.40;;
67715;SDS011;54508;43.238;25.306;2023-09-18T04:14:31;3.13;;;2.40;;
67715;SDS011;54508;43.238;25.306;2023-09-18T04:16:56;2.60;;;2.40;;
67715;SDS011;54508;43.238;25.306;2023-09-18T04:19:22;3.20;;;2.53;;
67715;SDS011;54508;43.238;25.306;2023-09-18T04:21:47;3.33;;;2.40;;
67715;SDS011;54508;43.238;25.306;2023-09-18T04:24:13;2.80;;;2.30;;
67715;SDS011;54508;43.238;25.306;2023-09-18T04:26:38;5.78;;;2.70;;
67715;SDS011;54508;43.238;25.306;2023-09-18T04:29:05;2.70;;;2.17;;
67715;SDS011;54508;43.238;25.306;2023-09-18T04:31:30;4.30;;;2.42;;
67715;SDS011;54508;43.238;25.306;2023-09-18T04:33:56;3.33;;;2.60;;
67715;SDS011;54508;43.238;25.306;2023-09-18T04:36:22;5.07;;;2.23;;
67715;SDS011;54508;43.238;25.306;2023-09-18T04:38:48;6.25;;;2.80;;
67715;SDS011;54508;43.238;25.306;2023-09-18T04:41:15;5.70;;;2.25;;
67715;SDS011;54508;43.238;25.306;2023-09-18T04:43:41;3.40;;;2.35;;
67715;SDS011;54508;43.238;25.306;2023-09-18T04:46:09;3.03;;;2.55;;
67715;SDS011;54508;43.238;25.306;2023-09-18T04:48:34;6.45;;;2.80;;
67715;SDS011;54508;43.238;25.306;2023-09-18T04:51:00;3.33;;;2.60;;
67715;SDS011;54508;43.238;25.306;2023-09-18T04:53:31;3.85;;;2.85;;
67715;SDS011;54508;43.238;25.306;2023-09-18T04:55:57;4.00;;;2.53;;
67715;SDS011;54508;43.238;25.306;2023-09-18T04:58:26;3.45;;;3.00;;
67715;SDS011;54508;43.238;25.306;2023-09-18T05:00:55;4.78;;;2.65;;
67715;SDS011;54508;43.238;25.306;2023-09-18T05:03:24;2.55;;;2.35;;
67715;SDS011;54508;43.238;25.306;2023-09-18T05:05:51;3.10;;;2.17;;
67715;SDS011;54508;43.238;25.306;2023-09-18T05:08:17;3.65;;;2.25;;
67715;SDS011;54508;43.238;25.306;2023-09-18T05:10:50;3.03;;;2.30;;
67715;SDS011;54508;43.238;25.306;2023-09-18T05:13:15;7.80;;;2.90;;
67715;SDS011;54508;43.238;25.306;2023-09-18T05:15:41;11.30;;;4.93;;
67715;SDS011;54508;43.238;25.306;2023-09-18T05:18:06;8.83;;;4.80;;
67715;SDS011;54508;43.238;25.306;2023-09-18T05:20:33;11.63;;;4.40;;
67715;SDS011;54508;43.238;25.306;2023-09-18T05:22:59;9.80;;;5.10;;
67715;SDS011;54508;43.238;25.306;2023-09-18T05:25:26;5.50;;;4.07;;
67715;SDS011;54508;43.238;25.306;2023-09-18T05:27:53;9.60;;;4.20;;
67715;SDS011;54508;43.238;25.306;2023-09-18T05:30:25;11.00;;;4.45;;
67715;SDS011;54508;43.238;25.306;2023-09-18T05:32:57;9.55;;;4.18;;
67715;SDS011;54508;43.238;25.306;2023-09-18T05:35:29;12.02;;;4.10;;
67715;SDS011;54508;43.238;25.306;2023-09-18T05:37:55;11.80;;;3.80;;
67715;SDS011;54508;43.238;25.306;2023-09-18T05:40:22;10.43;;;3.60;;
67715;SDS011;54508;43.238;25.306;2023-09-18T05:42:47;6.13;;;4.00;;
67715;SDS011;54508;43.238;25.306;2023-09-18T05:45:13;9.20;;;3.63;;
67715;SDS011;54508;43.238;25.306;2023-09-18T05:47:39;14.85;;;4.63;;
67715;SDS011;54508;43.238;25.306;2023-09-18T05:50:06;10.63;;;4.75;;
67715;SDS011;54508;43.238;25.306;2023-09-18T05:52:32;10.13;;;4.10;;
67715;SDS011;54508;43.238;25.306;2023-09-18T05:54:59;9.98;;;4.15;;
67715;SDS011;54508;43.238;25.306;2023-09-18T05:57:25;16.80;;;4.15;;
67715;SDS011;54508;43.238;25.306;2023-09-18T05:59:52;8.75;;;3.50;;
67715;SDS011;54508;43.238;25.306;2023-09-18T06:02:19;38.60;;;30.67;;
67715;SDS011;54508;43.238;25.306;2023-09-18T06:04:46;39.38;;;30.85;;
67715;SDS011;54508;43.238;25.306;2023-09-18T06:07:11;19.97;;;13.67;;
67715;SDS011;54508;43.238;25.306;2023-09-18T06:09:38;21.80;;;9.32;;
67715;SDS011;54508;43.238;25.306;2023-09-18T06:12:04;17.10;;;7.90;;
67715;SDS011;54508;43.238;25.306;2023-09-18T06:14:30;16.30;;;5.30;;
67715;SDS011;54508;43.238;25.306;2023-09-18T06:16:56;16.13;;;4.78;;
67715;SDS011;54508;43.238;25.306;2023-09-18T06:19:22;11.00;;;3.58;;
67715;SDS011;54508;43.238;25.306;2023-09-18T06:21:48;7.38;;;3.50;;
67715;SDS011;54508;43.238;25.306;2023-09-18T06:24:13;6.90;;;3.67;;
67715;SDS011;54508;43.238;25.306;2023-09-18T06:26:39;6.17;;;3.30;;
67715;SDS011;54508;43.238;25.306;2023-09-18T06:29:05;4.88;;;3.58;;
67715;SDS011;54508;43.238;25.306;2023-09-18T06:31:30;5.40;;;3.90;;
67715;SDS011;54508;43.238;25.306;2023-09-18T06:33:56;16.30;;;6.93;;
67715;SDS011;54508;43.238;25.306;2023-09-18T06:36:22;41.22;;;29.35;;
67715;SDS011;54508;43.238;25.306;2023-09-18T06:38:47;40.73;;;24.53;;
67715;SDS011;54508;43.238;25.306;2023-09-18T06:41:13;19.65;;;10.10;;
67715;SDS011;54508;43.238;25.306;2023-09-18T06:43:39;9.27;;;5.57;;
67715;SDS011;54508;43.238;25.306;2023-09-18T06:46:06;8.68;;;4.25;;
67715;SDS011;54508;43.238;25.306;2023-09-18T06:48:32;8.85;;;3.72;;
67715;SDS011;54508;43.238;25.306;2023-09-18T06:50:58;5.80;;;3.93;;
67715;SDS011;54508;43.238;25.306;2023-09-18T06:53:25;8.40;;;3.78;;
67715;SDS011;54508;43.238;25.306;2023-09-18T06:55:52;7.50;;;3.47;;
67715;SDS011;54508;43.238;25.306;2023-09-18T06:58:18;6.05;;;3.60;;
67715;SDS011;54508;43.238;25.306;2023-09-18T07:00:43;7.43;;;3.47;;
67715;SDS011;54508;43.238;25.306;2023-09-18T07:03:09;8.77;;;3.83;;
67715;SDS011;54508;43.238;25.306;2023-09-18T07:05:35;7.32;;;3.10;;
67715;SDS011;54508;43.238;25.306;2023-09-18T07:08:00;6.13;;;3.23;;
67715;SDS011;54508;43.238;25.306;2023-09-18T07:10:26;7.10;;;3.28;;
67715;SDS011;54508;43.238;25.306;2023-09-18T07:12:51;9.17;;;5.33;;
67715;SDS011;54508;43.238;25.306;2023-09-18T07:15:17;10.60;;;5.57;;
67715;SDS011;54508;43.238;25.306;2023-09-18T07:17:42;11.10;;;6.13;;
67715;SDS011;54508;43.238;25.306;2023-09-18T07:20:08;6.25;;;4.68;;
67715;SDS011;54508;43.238;25.306;2023-09-18T07:22:40;18.38;;;4.32;;
67715;SDS011;54508;43.238;25.306;2023-09-18T07:25:10;6.47;;;3.87;;
67715;SDS011;54508;43.238;25.306;2023-09-18T07:27:35;6.53;;;3.55;;
67715;SDS011;54508;43.238;25.306;2023-09-18T07:30:03;6.20;;;3.70;;
67715;SDS011;54508;43.238;25.306;2023-09-18T07:32:29;5.82;;;3.50;;
67715;SDS011;54508;43.238;25.306;2023-09-18T07:34:55;19.35;;;3.38;;
67715;SDS011;54508;43.238;25.306;2023-09-18T07:37:21;4.63;;;3.37;;
67715;SDS011;54508;43.238;25.306;2023-09-18T07:39:46;11.48;;;3.38;;
67715;SDS011;54508;43.238;25.306;2023-09-18T07:42:12;6.45;;;2.95;;
67715;SDS011;54508;43.238;25.306;2023-09-18T07:44:37;13.63;;;5.00;;
67715;SDS011;54508;43.238;25.306;2023-09-18T07:47:03;8.07;;;3.57;;
67715;SDS011;54508;43.238;25.306;2023-09-18T07:49:28;17.48;;;5.22;;
67715;SDS011;54508;43.238;25.306;2023-09-18T07:51:54;15.30;;;4.90;;
67715;SDS011;54508;43.238;25.306;2023-09-18T07:54:21;3.97;;;3.25;;
67715;SDS011;54508;43.238;25.306;2023-09-18T07:56:47;6.68;;;3.33;;
67715;SDS011;54508;43.238;25.306;2023-09-18T07:59:12;9.70;;;2.85;;
67715;SDS011;54508;43.238;25.306;2023-09-18T08:01:39;7.72;;;3.10;;
67715;SDS011;54508;43.238;25.306;2023-09-18T08:04:05;6.63;;;3.10;;
67715;SDS011;54508;43.238;25.306;2023-09-18T08:06:31;6.60;;;2.80;;
67715;SDS011;54508;43.238;25.306;2023-09-18T08:08:56;8.25;;;3.33;;
67715;SDS011;54508;43.238;25.306;2023-09-18T08:11:22;12.83;;;4.57;;
67715;SDS011;54508;43.238;25.306;2023-09-18T08:13:47;15.63;;;5.50;;
67715;SDS011;54508;43.238;25.306;2023-09-18T08:16:12;8.23;;;4.43;;
67715;SDS011;54508;43.238;25.306;2023-09-18T08:18:39;5.53;;;3.55;;
67715;SDS011;54508;43.238;25.306;2023-09-18T08:21:06;4.35;;;2.78;;
67715;SDS011;54508;43.238;25.306;2023-09-18T08:23:34;10.50;;;3.05;;
67715;SDS011;54508;43.238;25.306;2023-09-18T08:26:00;7.72;;;2.90;;
67715;SDS011;54508;43.238;25.306;2023-09-18T08:28:26;3.00;;;2.10;;
67715;SDS011;54508;43.238;25.306;2023-09-18T08:30:51;3.47;;;2.57;;
67715;SDS011;54508;43.238;25.306;2023-09-18T08:33:17;5.88;;;2.22;;
67715;SDS011;54508;43.238;25.306;2023-09-18T08:35:42;11.80;;;2.50;;
67715;SDS011;54508;43.238;25.306;2023-09-18T08:38:09;6.72;;;3.10;;
67715;SDS011;54508;43.238;25.306;2023-09-18T08:40:34;9.47;;;2.70;;
67715;SDS011;54508;43.238;25.306;2023-09-18T08:43:00;3.00;;;2.43;;
67715;SDS011;54508;43.238;25.306;2023-09-18T08:47:58;10.05;;;4.55;;
67715;SDS011;54508;43.238;25.306;2023-09-18T08:50:24;5.72;;;4.10;;
67715;SDS011;54508;43.238;25.306;2023-09-18T08:52:50;4.80;;;3.50;;
67715;SDS011;54508;43.238;25.306;2023-09-18T08:55:16;4.17;;;2.80;;
67715;SDS011;54508;43.238;25.306;2023-09-18T08:57:41;4.83;;;2.67;;
67715;SDS011;54508;43.238;25.306;2023-09-18T09:00:07;3.60;;;3.10;;
67715;SDS011;54508;43.238;25.306;2023-09-18T09:02:36;12.15;;;2.97;;
67715;SDS011;54508;43.238;25.306;2023-09-18T09:05:02;5.47;;;2.83;;
67715;SDS011;54508;43.238;25.306;2023-09-18T09:07:28;5.05;;;3.00;;
67715;SDS011;54508;43.238;25.306;2023-09-18T09:09:56;7.50;;;2.92;;
67715;SDS011;54508;43.238;25.306;2023-09-18T09:15:29;7.85;;;4.03;;
67715;SDS011;54508;43.238;25.306;2023-09-18T09:18:01;3.97;;;2.88;;
67715;SDS011;54508;43.238;25.306;2023-09-18T09:20:28;10.40;;;3.40;;
67715;SDS011;54508;43.238;25.306;2023-09-18T09:22:59;5.30;;;2.90;;
67715;SDS011;54508;43.238;25.306;2023-09-18T09:25:26;8.02;;;3.65;;
67715;SDS011;54508;43.238;25.306;2023-09-18T09:27:54;3.45;;;2.80;;
67715;SDS011;54508;43.238;25.306;2023-09-18T09:30:23;3.17;;;2.78;;
67715;SDS011;54508;43.238;25.306;2023-09-18T09:32:51;4.50;;;2.85;;
67715;SDS011;54508;43.238;25.306;2023-09-18T09:35:28;12.63;;;8.95;;
67715;SDS011;54508;43.238;25.306;2023-09-18T09:37:58;10.32;;;7.40;;
67715;SDS011;54508;43.238;25.306;2023-09-18T09:40:26;8.02;;;6.50;;
67715;SDS011;54508;43.238;25.306;2023-09-18T09:42:55;6.85;;;5.05;;
67715;SDS011;54508;43.238;25.306;2023-09-18T09:45:30;4.90;;;4.43;;
67715;SDS011;54508;43.238;25.306;2023-09-18T09:48:00;5.55;;;3.92;;
67715;SDS011;54508;43.238;25.306;2023-09-18T09:50:27;6.53;;;3.70;;
67715;SDS011;54508;43.238;25.306;2023-09-18T09:52:54;10.15;;;4.00;;
67715;SDS011;54508;43.238;25.306;2023-09-18T09:57:56;5.85;;;3.70;;
67715;SDS011;54508;43.238;25.306;2023-09-18T10:00:27;7.82;;;4.45;;
67715;SDS011;54508;43.238;25.306;2023-09-18T10:03:08;5.68;;;4.15;;
67715;SDS011;54508;43.238;25.306;2023-09-18T10:05:36;6.97;;;3.92;;
67715;SDS011;54508;43.238;25.306;2023-09-18T10:10:43;11.77;;;4.60;;
67715;SDS011;54508;43.238;25.306;2023-09-18T10:13:20;8.95;;;4.57;;
67715;SDS011;54508;43.238;25.306;2023-09-18T10:15:52;5.35;;;4.00;;
67715;SDS011;54508;43.238;25.306;2023-09-18T10:21:17;5.53;;;3.70;;
67715;SDS011;54508;43.238;25.306;2023-09-18T10:26:24;5.30;;;3.78;;
67715;SDS011;54508;43.238;25.306;2023-09-18T10:28:56;4.82;;;3.75;;
67715;SDS011;54508;43.238;25.306;2023-09-18T10:31:42;7.88;;;3.22;;
67715;SDS011;54508;43.238;25.306;2023-09-18T10:34:12;7.27;;;3.47;;
67715;SDS011;54508;43.238;25.306;2023-09-18T10:36:39;5.13;;;3.20;;
67715;SDS011;54508;43.238;25.306;2023-09-18T10:39:06;3.60;;;3.13;;
67715;SDS011;54508;43.238;25.306;2023-09-18T10:41:35;5.60;;;3.30;;
67715;SDS011;54508;43.238;25.306;2023-09-18T10:44:01;12.55;;;7.80;;
67715;SDS011;54508;43.238;25.306;2023-09-18T10:46:34;4.40;;;3.03;;
67715;SDS011;54508;43.238;25.306;2023-09-18T10:49:07;6.05;;;3.17;;
67715;SDS011;54508;43.238;25.306;2023-09-18T10:51:33;9.90;;;2.90;;
67715;SDS011;54508;43.238;25.306;2023-09-18T10:54:01;7.15;;;3.13;;
67715;SDS011;54508;43.238;25.306;2023-09-18T10:56:30;6.07;;;3.10;;
67715;SDS011;54508;43.238;25.306;2023-09-18T10:59:00;7.15;;;2.83;;
67715;SDS011;54508;43.238;25.306;2023-09-18T11:01:27;6.85;;;3.03;;
67715;SDS011;54508;43.238;25.306;2023-09-18T11:03:57;7.10;;;3.33;;
67715;SDS011;54508;43.238;25.306;2023-09-18T11:06:25;4.78;;;2.97;;
67715;SDS011;54508;43.238;25.306;2023-09-18T11:09:00;6.03;;;3.40;;
67715;SDS011;54508;43.238;25.306;2023-09-18T11:11:29;7.50;;;3.13;;
67715;SDS011;54508;43.238;25.306;2023-09-18T11:13:57;8.50;;;2.90;;
67715;SDS011;54508;43.238;25.306;2023-09-18T11:21:25;7.10;;;2.75;;
67715;SDS011;54508;43.238;25.306;2023-09-18T11:23:59;2.78;;;2.50;;
67715;SDS011;54508;43.238;25.306;2023-09-18T11:26:29;5.03;;;2.85;;
67715;SDS011;54508;43.238;25.306;2023-09-18T11:28:58;2.90;;;2.30;;
67715;SDS011;54508;43.238;25.306;2023-09-18T11:31:41;4.03;;;2.65;;
67715;SDS011;54508;43.238;25.306;2023-09-18T11:34:22;3.60;;;2.40;;
67715;SDS011;54508;43.238;25.306;2023-09-18T11:36:53;3.53;;;2.88;;
67715;SDS011;54508;43.238;25.306;2023-09-18T11:39:34;7.07;;;2.70;;
67715;SDS011;54508;43.238;25.306;2023-09-18T11:44:35;3.42;;;2.10;;
67715;SDS011;54508;43.238;25.306;2023-09-18T11:47:06;3.67;;;2.83;;
67715;SDS011;54508;43.238;25.306;2023-09-18T11:49:32;3.85;;;2.70;;
67715;SDS011;54508;43.238;25.306;2023-09-18T11:51:59;7.43;;;2.70;;
67715;SDS011;54508;43.238;25.306;2023-09-18T11:54:24;8.10;;;2.78;;
67715;SDS011;54508;43.238;25.306;2023-09-18T11:56:51;10.27;;;3.08;;
67715;SDS011;54508;43.238;25.306;2023-09-18T11:59:16;9.70;;;2.90;;
67715;SDS011;54508;43.238;25.306;2023-09-18T12:01:51;4.78;;;2.67;;
67715;SDS011;54508;43.238;25.306;2023-09-18T12:04:18;5.90;;;2.53;;
67715;SDS011;54508;43.238;25.306;2023-09-18T12:06:52;7.85;;;3.00;;
67715;SDS011;54508;43.238;25.306;2023-09-18T12:09:25;3.07;;;2.57;;
67715;SDS011;54508;43.238;25.306;2023-09-18T12:12:13;10.95;;;2.78;;
67715;SDS011;54508;43.238;25.306;2023-09-18T12:14:39;4.65;;;2.47;;
67715;SDS011;54508;43.238;25.306;2023-09-18T12:17:06;3.17;;;2.38;;
67715;SDS011;54508;43.238;25.306;2023-09-18T12:19:33;3.55;;;2.10;;
67715;SDS011;54508;43.238;25.306;2023-09-18T12:22:00;5.28;;;2.35;;
67715;SDS011;54508;43.238;25.306;2023-09-18T12:24:26;5.97;;;2.00;;
67715;SDS011;54508;43.238;25.306;2023-09-18T12:26:52;17.38;;;2.60;;
67715;SDS011;54508;43.238;25.306;2023-09-18T12:29:21;8.50;;;2.20;;
67715;SDS011;54508;43.238;25.306;2023-09-18T12:31:46;3.97;;;2.03;;
67715;SDS011;54508;43.238;25.306;2023-09-18T12:34:18;5.05;;;2.03;;
67715;SDS011;54508;43.238;25.306;2023-09-18T12:36:46;5.80;;;2.10;;
67715;SDS011;54508;43.238;25.306;2023-09-18T12:39:12;3.83;;;2.10;;
67715;SDS011;54508;43.238;25.306;2023-09-18T12:41:41;8.05;;;2.60;;
67715;SDS011;54508;43.238;25.306;2023-09-18T12:44:07;9.38;;;3.22;;
67715;SDS011;54508;43.238;25.306;2023-09-18T12:46:34;10.10;;;3.40;;
67715;SDS011;54508;43.238;25.306;2023-09-18T12:51:53;7.65;;;3.15;;
67715;SDS011;54508;43.238;25.306;2023-09-18T12:54:20;6.18;;;3.17;;
67715;SDS011;54508;43.238;25.306;2023-09-18T12:56:45;10.32;;;3.65;;
67715;SDS011;54508;43.238;25.306;2023-09-18T12:59:11;6.90;;;2.80;;
67715;SDS011;54508;43.238;25.306;2023-09-18T13:01:38;5.72;;;2.72;;
67715;SDS011;54508;43.238;25.306;2023-09-18T13:04:03;7.63;;;2.40;;
67715;SDS011;54508;43.238;25.306;2023-09-18T13:06:30;6.75;;;2.75;;
67715;SDS011;54508;43.238;25.306;2023-09-18T13:08:56;6.90;;;2.80;;
67715;SDS011;54508;43.238;25.306;2023-09-18T13:11:56;6.65;;;2.60;;
67715;SDS011;54508;43.238;25.306;2023-09-18T13:14:22;4.90;;;2.42;;
67715;SDS011;54508;43.238;25.306;2023-09-18T13:16:48;7.97;;;4.03;;
67715;SDS011;54508;43.238;25.306;2023-09-18T13:19:13;8.63;;;3.40;;
67715;SDS011;54508;43.238;25.306;2023-09-18T13:21:45;9.13;;;3.40;;
67715;SDS011;54508;43.238;25.306;2023-09-18T13:24:33;7.17;;;3.50;;
67715;SDS011;54508;43.238;25.306;2023-09-18T13:26:58;10.98;;;3.30;;
67715;SDS011;54508;43.238;25.306;2023-09-18T13:29:26;28.25;;;4.03;;
67715;SDS011;54508;43.238;25.306;2023-09-18T13:31:52;10.67;;;3.10;;
67715;SDS011;54508;43.238;25.306;2023-09-18T13:34:17;7.45;;;2.85;;
67715;SDS011;54508;43.238;25.306;2023-09-18T13:36:46;7.50;;;3.43;;
67715;SDS011;54508;43.238;25.306;2023-09-18T13:39:12;11.75;;;3.53;;
67715;SDS011;54508;43.238;25.306;2023-09-18T13:41:39;6.18;;;3.05;;
67715;SDS011;54508;43.238;25.306;2023-09-18T13:44:06;7.35;;;2.58;;
67715;SDS011;54508;43.238;25.306;2023-09-18T13:46:32;4.35;;;3.00;;
67715;SDS011;54508;43.238;25.306;2023-09-18T13:49:01;7.65;;;3.22;;
67715;SDS011;54508;43.238;25.306;2023-09-18T13:51:28;7.70;;;3.05;;
67715;SDS011;54508;43.238;25.306;2023-09-18T13:53:53;7.03;;;3.07;;
67715;SDS011;54508;43.238;25.306;2023-09-18T13:56:21;10.73;;;6.07;;
67715;SDS011;54508;43.238;25.306;2023-09-18T13:58:47;10.50;;;6.10;;
67715;SDS011;54508;43.238;25.306;2023-09-18T14:01:12;14.73;;;6.72;;
67715;SDS011;54508;43.238;25.306;2023-09-18T14:03:40;8.75;;;6.55;;
67715;SDS011;54508;43.238;25.306;2023-09-18T14:06:07;9.43;;;5.97;;
67715;SDS011;54508;43.238;25.306;2023-09-18T14:08:34;8.45;;;5.75;;
67715;SDS011;54508;43.238;25.306;2023-09-18T14:10:59;7.73;;;5.10;;
67715;SDS011;54508;43.238;25.306;2023-09-18T14:13:25;6.53;;;5.18;;
67715;SDS011;54508;43.238;25.306;2023-09-18T14:15:50;9.87;;;5.30;;
67715;SDS011;54508;43.238;25.306;2023-09-18T14:18:16;6.00;;;4.63;;
67715;SDS011;54508;43.238;25.306;2023-09-18T14:20:41;5.17;;;4.20;;
67715;SDS011;54508;43.238;25.306;2023-09-18T14:23:07;6.13;;;3.70;;
67715;SDS011;54508;43.238;25.306;2023-09-18T14:25:32;11.95;;;4.10;;
67715;SDS011;54508;43.238;25.306;2023-09-18T14:27:58;5.27;;;3.87;;
67715;SDS011;54508;43.238;25.306;2023-09-18T14:30:23;3.70;;;3.30;;
67715;SDS011;54508;43.238;25.306;2023-09-18T14:32:54;5.30;;;3.35;;
67715;SDS011;54508;43.238;25.306;2023-09-18T14:35:20;6.53;;;3.50;;
67715;SDS011;54508;43.238;25.306;2023-09-18T14:37:45;5.15;;;3.47;;
67715;SDS011;54508;43.238;25.306;2023-09-18T14:40:11;6.60;;;4.80;;
67715;SDS011;54508;43.238;25.306;2023-09-18T14:42:37;4.20;;;3.60;;
67715;SDS011;54508;43.238;25.306;2023-09-18T14:45:02;4.70;;;3.80;;
67715;SDS011;54508;43.238;25.306;2023-09-18T14:47:28;4.72;;;3.55;;
67715;SDS011;54508;43.238;25.306;2023-09-18T14:49:54;6.60;;;4.07;;
67715;SDS011;54508;43.238;25.306;2023-09-18T14:52:19;4.82;;;3.78;;
67715;SDS011;54508;43.238;25.306;2023-09-18T14:54:48;5.60;;;3.70;;
67715;SDS011;54508;43.238;25.306;2023-09-18T14:57:14;4.75;;;3.58;;
67715;SDS011;54508;43.238;25.306;2023-09-18T14:59:39;5.23;;;3.47;;
67715;SDS011;54508;43.238;25.306;2023-09-18T15:02:07;4.47;;;3.85;;
67715;SDS011;54508;43.238;25.306;2023-09-18T15:04:33;5.53;;;3.65;;